Time;durP1;ratioP1;P1;durP2;ratioP2;P2;SDS_P1;SDS_P2;PMS_P1;PMS_P2;Temp;Humidity;BMP_temperature;BMP_pressure;BME280_temperature;BME280_humidity;BME280_pressure;Samples;Min_cycle;Max_cycle;Signal;HPM_P1;HPM_P2
2022/03/03 00:00:45;;;;;;;26.71;10.59;;;;;;;;;;357744;147;857270;-60
2022/03/03 00:01:46;;;;;;;41.55;9.77;;;;;;;;;;356712;147;863896;-60
2022/03/03 00:02:49;;;;;;;21.33;11.21;;;;;;;;;;352901;150;858560;-61
2022/03/03 00:03:50;;;;;;;23.17;9.97;;;;;;;;;;353154;150;857224;-61
2022/03/03 00:04:52;;;;;;;27.00;10.69;;;;;;;;;;356819;147;856330;-61
2022/03/03 00:05:53;;;;;;;17.70;10.19;;;;;;;;;;356600;147;856402;-63
2022/03/03 00:06:55;;;;;;;25.16;11.44;;;;;;;;;;356562;147;863465;-62
2022/03/03 00:07:57;;;;;;;20.67;9.79;;;;;;;;;;356567;147;863717;-63
2022/03/03 00:08:58;;;;;;;22.91;9.74;;;;;;;;;;355985;147;856623;-60
2022/03/03 00:10:00;;;;;;;25.10;11.49;;;;;;;;;;356067;147;856084;-60
2022/03/03 00:11:01;;;;;;;20.84;10.99;;;;;;;;;;357048;147;864428;-60
2022/03/03 00:12:03;;;;;;;18.43;9.84;;;;;;;;;;356538;147;856856;-60
2022/03/03 00:13:05;;;;;;;19.38;10.38;;;;;;;;;;355891;147;856175;-60
2022/03/03 00:14:06;;;;;;;24.41;11.16;;;;;;;;;;356977;147;856456;-59
2022/03/03 00:15:08;;;;;;;19.44;10.24;;;;;;;;;;355690;147;856042;-60
2022/03/03 00:16:10;;;;;;;23.33;10.50;;;;;;;;;;357682;147;856413;-59
2022/03/03 00:17:12;;;;;;;20.41;10.02;;;;;;;;;;356710;147;856436;-60
2022/03/03 00:29:56;;;;;;;16.64;8.66;;;;;;;1.20;81.34;99624.36;368848;142;874478;-59
2022/03/03 00:30:58;;;;;;;13.93;8.13;;;;;;;;;;361813;145;857375;-59
2022/03/03 00:31:59;;;;;;;14.80;8.37;;;;;;;;;;361809;144;856526;-59
2022/03/03 00:33:01;;;;;;;15.49;9.33;;;;;;;;;;361486;144;856571;-60
2022/03/03 00:34:03;;;;;;;19.01;9.03;;;;;;;;;;362193;144;864307;-60
2022/03/03 00:35:04;;;;;;;15.83;8.76;;;;;;;;;;361793;144;856222;-59
2022/03/03 00:36:06;;;;;;;22.76;9.93;;;;;;;;;;362364;146;856220;-59
2022/03/03 00:37:07;;;;;;;20.96;9.77;;;;;;;;;;363373;144;856729;-59
2022/03/03 00:38:09;;;;;;;21.49;10.21;;;;;;;;;;363506;145;864182;-59
2022/03/03 00:39:11;;;;;;;16.76;9.57;;;;;;;;;;363053;144;857299;-59
2022/03/03 00:40:13;;;;;;;20.00;9.29;;;;;;;;;;362951;145;865241;-59
2022/03/03 00:41:14;;;;;;;21.69;9.31;;;;;;;;;;363725;145;856182;-59
2022/03/03 00:42:16;;;;;;;15.44;9.25;;;;;;;;;;363434;145;856724;-59
2022/03/03 00:43:17;;;;;;;20.50;10.14;;;;;;;;;;363798;146;864092;-59
2022/03/03 00:44:19;;;;;;;27.04;9.74;;;;;;;;;;362980;144;858159;-59
2022/03/03 00:45:22;;;;;;;19.52;10.25;;;;;;;;;;362528;145;856855;-60
2022/03/03 00:46:25;;;;;;;21.61;9.74;;;;;;;;;;363895;146;856574;-58
2022/03/03 00:47:26;;;;;;;18.98;10.13;;;;;;;;;;363243;145;863536;-61
2022/03/03 00:48:28;;;;;;;16.30;9.39;;;;;;;;;;362959;145;856677;-59
2022/03/03 00:49:29;;;;;;;21.41;9.76;;;;;;;;;;363115;146;864042;-62
2022/03/03 00:50:31;;;;;;;16.58;9.84;;;;;;;;;;363331;146;863829;-62
2022/03/03 00:51:33;;;;;;;19.81;9.90;;;;;;;;;;362947;145;856216;-61
2022/03/03 00:52:34;;;;;;;17.34;9.84;;;;;;;;;;363149;145;856246;-62
2022/03/03 00:53:36;;;;;;;15.99;9.13;;;;;;;;;;362551;146;856648;-61
2022/03/03 00:54:37;;;;;;;16.56;9.49;;;;;;;;;;363077;145;856892;-61
2022/03/03 00:55:39;;;;;;;18.87;9.89;;;;;;;;;;363257;145;863914;-58
2022/03/03 00:56:40;;;;;;;20.83;10.50;;;;;;;;;;363184;146;856516;-59
2022/03/03 00:59:24;;;;;;;20.40;10.18;;;;;;;1.18;81.30;99601.39;366333;142;965703;-58
2022/03/03 01:00:26;;;;;;;12.09;7.71;;;;;;;1.06;81.07;99607.03;363486;147;863893;-59
2022/03/03 01:01:29;;;;;;;12.34;7.31;;;;;;;1.05;81.06;99606.98;362152;146;856169;-60
2022/03/03 01:02:30;;;;;;;10.97;6.41;;;;;;;1.05;81.16;99609.53;362281;146;863996;-59
2022/03/03 01:03:32;;;;;;;12.66;6.94;;;;;;;1.08;81.48;99602.84;363564;146;856693;-59
2022/03/03 01:04:34;;;;;;;10.45;6.21;;;;;;;1.19;81.39;99609.89;362698;147;863852;-59
2022/03/03 01:05:36;;;;;;;11.96;6.46;;;;;;;1.26;81.13;99607.53;362748;146;863792;-58
2022/03/03 01:06:37;;;;;;;12.54;6.38;;;;;;;1.35;80.43;99606.03;363098;146;864349;-59
2022/03/03 01:07:39;;;;;;;13.00;6.68;;;;;;;1.41;79.91;99596.82;363711;147;863773;-59
2022/03/03 01:08:41;;;;;;;8.73;5.35;;;;;;;;;;362953;146;863770;-58
2022/03/03 01:09:42;;;;;;;10.99;5.94;;;;;;;;;;363727;146;856756;-59
2022/03/03 01:10:44;;;;;;;11.00;6.55;;;;;;;;;;363258;147;858841;-58
2022/03/03 01:11:45;;;;;;;10.56;7.09;;;;;;;;;;361394;147;864075;-58
2022/03/03 01:12:47;;;;;;;15.08;7.14;;;;;;;;;;363559;146;864049;-58
2022/03/03 01:13:48;;;;;;;13.59;7.67;;;;;;;;;;364204;146;863983;-58
2022/03/03 01:14:50;;;;;;;12.56;6.89;;;;;;;;;;361480;147;863975;-58
2022/03/03 01:15:53;;;;;;;16.61;6.85;;;;;;;;;;363909;146;864613;-58
2022/03/03 01:16:55;;;;;;;12.64;7.97;;;;;;;;;;361911;146;856628;-58
2022/03/03 01:17:56;;;;;;;15.69;8.04;;;;;;;;;;358365;148;856272;-59
2022/03/03 01:18:59;;;;;;;18.68;8.49;;;;;;;;;;358198;147;863969;-59
2022/03/03 01:20:00;;;;;;;16.81;8.34;;;;;;;;;;347927;152;863768;-59
2022/03/03 01:21:02;;;;;;;15.56;8.80;;;;;;;;;;358222;148;856200;-59
2022/03/03 01:22:04;;;;;;;19.83;8.79;;;;;;;;;;358092;148;864917;-58
2022/03/03 01:23:05;;;;;;;14.72;8.44;;;;;;;;;;357713;147;856371;-58
2022/03/03 01:24:07;;;;;;;15.14;8.60;;;;;;;;;;357539;148;856781;-58
2022/03/03 01:25:09;;;;;;;17.91;9.46;;;;;;;;;;358535;147;863901;-58
2022/03/03 01:26:11;;;;;;;17.83;9.03;;;;;;;;;;358522;147;856294;-58
2022/03/03 01:27:12;;;;;;;12.79;7.83;;;;;;;;;;358434;148;856087;-59
2022/03/03 01:28:14;;;;;;;18.91;8.60;;;;;;;;;;358445;147;856877;-59
2022/03/03 01:29:15;;;;;;;16.96;9.11;;;;;;;;;;358528;147;856743;-59
2022/03/03 01:30:18;;;;;;;21.01;9.26;;;;;;;;;;357743;147;856484;-60
2022/03/03 01:31:20;;;;;;;14.36;8.51;;;;;;;;;;358136;147;856455;-59
2022/03/03 01:32:21;;;;;;;23.88;9.76;;;;;;;;;;358937;148;858416;-59
2022/03/03 01:33:23;;;;;;;19.33;9.00;;;;;;;;;;358530;147;864209;-59
2022/03/03 01:34:24;;;;;;;15.85;9.39;;;;;;;;;;357315;147;857028;-59
2022/03/03 01:35:26;;;;;;;15.16;8.62;;;;;;;;;;359113;148;863823;-60
2022/03/03 01:36:27;;;;;;;18.40;9.19;;;;;;;;;;358223;150;856278;-59
2022/03/03 01:37:29;;;;;;;19.85;8.59;;;;;;;;;;357883;147;856247;-61
2022/03/03 01:38:31;;;;;;;13.26;8.24;;;;;;;;;;358202;148;856226;-61
2022/03/03 01:39:32;;;;;;;20.84;9.34;;;;;;;;;;358149;148;864459;-61
2022/03/03 01:40:34;;;;;;;14.62;8.89;;;;;;;;;;358689;147;857174;-61
2022/03/03 01:41:36;;;;;;;15.07;8.35;;;;;;;;;;357199;147;857271;-60
2022/03/03 01:42:38;;;;;;;15.80;9.04;;;;;;;;;;358475;147;856453;-60
2022/03/03 01:43:39;;;;;;;15.55;7.94;;;;;;;;;;358886;148;863819;-60
2022/03/03 01:44:42;;;;;;;15.54;8.54;;;;;;;;;;357437;147;856889;-60
2022/03/03 01:45:43;;;;;;;17.83;8.67;;;;;;;;;;358538;148;857049;-60
2022/03/03 01:46:52;;;;;;;17.09;9.04;;;;;;;;;;358045;148;862351;-60
2022/03/03 01:47:53;;;;;;;14.55;8.32;;;;;;;;;;356297;147;864308;-60
2022/03/03 01:48:55;;;;;;;19.64;8.71;;;;;;;;;;358162;149;856428;-60
2022/03/03 01:49:57;;;;;;;19.80;8.18;;;;;;;;;;358598;148;864013;-60
2022/03/03 01:50:58;;;;;;;17.59;8.25;;;;;;;;;;358184;147;856491;-60
2022/03/03 01:52:00;;;;;;;16.47;8.26;;;;;;;;;;357962;148;863840;-57
2022/03/03 01:53:01;;;;;;;16.24;9.61;;;;;;;;;;358885;147;856296;-58
2022/03/03 01:54:03;;;;;;;20.02;9.28;;;;;;;;;;358264;147;856713;-58
2022/03/03 01:55:04;;;;;;;16.58;9.23;;;;;;;;;;358474;147;856847;-58
2022/03/03 01:56:07;;;;;;;15.71;9.29;;;;;;;;;;358258;149;858965;-58
2022/03/03 01:57:08;;;;;;;18.39;10.31;;;;;;;;;;358091;147;856099;-58
2022/03/03 01:58:10;;;;;;;16.39;9.11;;;;;;;;;;357473;148;859167;-59
2022/03/03 01:59:12;;;;;;;16.41;8.96;;;;;;;;;;357241;147;856571;-59
2022/03/03 02:00:15;;;;;;;16.89;8.76;;;;;;;;;;356833;147;863825;-58
2022/03/03 02:01:16;;;;;;;15.48;8.87;;;;;;;;;;357841;148;856457;-59
2022/03/03 02:02:18;;;;;;;16.01;8.11;;;;;;;;;;356293;147;856268;-58
2022/03/03 02:03:19;;;;;;;16.09;8.29;;;;;;;;;;357774;148;864438;-58
2022/03/03 02:04:21;;;;;;;15.65;8.06;;;;;;;;;;358367;149;856683;-59
2022/03/03 02:05:22;;;;;;;17.54;8.51;;;;;;;;;;357201;147;864049;-58
2022/03/03 02:06:25;;;;;;;15.78;8.36;;;;;;;;;;356969;147;856410;-59
2022/03/03 02:07:26;;;;;;;14.57;8.14;;;;;;;;;;357688;147;863929;-58
2022/03/03 02:08:28;;;;;;;14.00;8.56;;;;;;;;;;357503;147;856935;-59
2022/03/03 02:09:29;;;;;;;16.86;8.14;;;;;;;;;;357442;147;856474;-58
2022/03/03 02:10:31;;;;;;;14.63;8.12;;;;;;;;;;357351;147;863955;-58
2022/03/03 02:11:33;;;;;;;15.61;8.45;;;;;;;;;;357619;147;863896;-58
2022/03/03 02:12:34;;;;;;;13.49;7.85;;;;;;;;;;357229;147;856427;-58
2022/03/03 02:13:36;;;;;;;13.77;8.26;;;;;;;;;;357090;149;864314;-58
2022/03/03 02:14:42;;;;;;;14.91;8.82;;;;;;;;;;356973;148;856598;-58
2022/03/03 02:15:49;;;;;;;13.47;7.73;;;;;;;;;;355940;147;858452;-58
2022/03/03 02:16:51;;;;;;;16.06;8.74;;;;;;;;;;356131;147;857288;-58
2022/03/03 02:17:52;;;;;;;14.84;7.96;;;;;;;;;;356967;149;855901;-58
2022/03/03 02:18:54;;;;;;;15.06;7.79;;;;;;;;;;356989;147;864428;-58
2022/03/03 02:19:56;;;;;;;12.60;7.70;;;;;;;;;;356893;149;863815;-58
2022/03/03 02:20:57;;;;;;;14.03;7.75;;;;;;;;;;357257;149;857988;-58
2022/03/03 02:21:59;;;;;;;17.11;8.08;;;;;;;;;;356420;150;856073;-58
2022/03/03 02:23:01;;;;;;;14.35;8.07;;;;;;;;;;356396;148;856919;-58
2022/03/03 02:24:03;;;;;;;15.69;7.86;;;;;;;;;;356935;148;856326;-58
2022/03/03 02:25:05;;;;;;;14.65;7.68;;;;;;;;;;357356;150;856613;-59
2022/03/03 02:26:07;;;;;;;13.43;7.60;;;;;;;;;;356401;148;856833;-59
2022/03/03 02:27:10;;;;;;;13.05;7.19;;;;;;;;;;356929;148;856092;-59
2022/03/03 02:28:11;;;;;;;12.83;7.75;;;;;;;;;;357470;149;856111;-58
2022/03/03 02:29:13;;;;;;;18.07;7.38;;;;;;;;;;356963;147;863819;-58
2022/03/03 02:30:16;;;;;;;14.29;8.18;;;;;;;;;;356869;147;856372;-58
2022/03/03 02:31:17;;;;;;;14.05;7.97;;;;;;;;;;357458;149;856067;-58
2022/03/03 02:32:19;;;;;;;14.04;8.17;;;;;;;;;;357486;147;856257;-59
2022/03/03 02:33:20;;;;;;;14.30;7.89;;;;;;;;;;356570;147;864413;-58
2022/03/03 02:34:23;;;;;;;13.69;7.56;;;;;;;;;;355718;149;864077;-59
2022/03/03 02:35:24;;;;;;;14.15;7.81;;;;;;;;;;357520;148;856860;-59
2022/03/03 02:36:29;;;;;;;12.71;7.61;;;;;;;;;;357246;150;856147;-61
2022/03/03 02:37:35;;;;;;;13.90;7.68;;;;;;;;;;357086;147;863965;-61
2022/03/03 02:38:36;;;;;;;13.22;7.52;;;;;;;;;;357124;148;856220;-61
2022/03/03 02:39:38;;;;;;;12.56;8.01;;;;;;;;;;357491;147;857075;-61
2022/03/03 02:40:40;;;;;;;13.45;7.65;;;;;;;;;;357138;147;864605;-60
2022/03/03 02:41:41;;;;;;;12.76;7.46;;;;;;;;;;357101;149;864047;-61
2022/03/03 02:42:43;;;;;;;13.75;7.61;;;;;;;;;;357692;150;856336;-60
2022/03/03 02:43:45;;;;;;;15.66;8.16;;;;;;;;;;357290;148;856344;-60
2022/03/03 02:44:46;;;;;;;11.85;7.20;;;;;;;;;;357446;149;864075;-60
2022/03/03 02:45:48;;;;;;;13.79;7.39;;;;;;;;;;357429;149;856968;-60
2022/03/03 02:46:49;;;;;;;14.80;7.81;;;;;;;;;;356871;149;856303;-60
2022/03/03 02:47:51;;;;;;;11.31;7.00;;;;;;;;;;357314;147;856396;-60
2022/03/03 02:48:53;;;;;;;11.94;7.44;;;;;;;;;;357287;148;856090;-60
2022/03/03 02:49:54;;;;;;;13.24;7.32;;;;;;;;;;357557;149;863828;-60
2022/03/03 02:50:56;;;;;;;12.12;7.16;;;;;;;;;;356215;148;856416;-59
2022/03/03 02:51:57;;;;;;;16.44;7.34;;;;;;;;;;356349;148;864437;-57
2022/03/03 02:53:02;;;;;;;13.91;7.11;;;;;;;;;;356541;149;856622;-57
2022/03/03 02:54:02;;;;;;;14.20;7.59;;;;;;;;;;356573;148;857610;-57
2022/03/03 02:55:04;;;;;;;12.83;7.49;;;;;;;;;;356995;148;856719;-61
2022/03/03 02:56:07;;;;;;;10.53;7.04;;;;;;;;;;356501;149;864242;-57
2022/03/03 02:58:28;;;;;;;14.15;7.82;;;;;;;;;;357130;148;857067;-63
2022/03/03 02:59:30;;;;;;;12.55;7.76;;;;;;;;;;356518;149;856590;-63
2022/03/03 03:00:38;;;;;;;12.31;7.19;;;;;;;;;;357411;147;856431;-62
2022/03/03 03:01:35;;;;;;;11.31;6.79;;;;;;;;;;357025;147;864555;-61
2022/03/03 03:02:37;;;;;;;12.91;7.24;;;;;;;;;;358221;147;857072;-61
2022/03/03 03:03:39;;;;;;;11.84;7.01;;;;;;;;;;358422;148;864438;-58
2022/03/03 03:04:40;;;;;;;12.06;6.95;;;;;;;;;;358011;147;864509;-58
2022/03/03 03:05:42;;;;;;;10.81;6.89;;;;;;;;;;357559;148;857404;-58
2022/03/03 03:06:43;;;;;;;15.44;7.24;;;;;;;;;;358440;147;864562;-58
2022/03/03 03:07:45;;;;;;;12.09;6.66;;;;;;;;;;357584;147;857088;-57
2022/03/03 03:08:47;;;;;;;11.60;6.71;;;;;;;;;;357087;147;857443;-57
2022/03/03 03:09:48;;;;;;;11.54;6.97;;;;;;;;;;357000;147;856356;-58
2022/03/03 03:10:50;;;;;;;11.04;6.45;;;;;;;;;;358174;148;856815;-57
2022/03/03 03:11:51;;;;;;;11.52;5.78;;;;;;;;;;357994;147;856401;-57
2022/03/03 03:12:53;;;;;;;12.44;6.20;;;;;;;;;;357123;147;857991;-58
2022/03/03 03:13:54;;;;;;;12.17;7.16;;;;;;;;;;358705;147;857490;-57
2022/03/03 03:14:56;;;;;;;10.56;6.51;;;;;;;;;;358454;147;856619;-57
2022/03/03 03:15:57;;;;;;;9.41;5.94;;;;;;;;;;357397;147;856610;-59
2022/03/03 03:16:59;;;;;;;11.34;6.73;;;;;;;;;;358178;147;856329;-57
2022/03/03 03:18:08;;;;;;;10.19;6.54;;;;;;;;;;358668;147;863911;-58
2022/03/03 03:19:10;;;;;;;9.17;5.96;;;;;;;;;;357996;147;864592;-59
2022/03/03 03:20:12;;;;;;;10.36;5.89;;;;;;;;;;357687;147;856060;-58
2022/03/03 03:21:14;;;;;;;10.51;6.01;;;;;;;;;;358123;147;856931;-58
2022/03/03 03:22:16;;;;;;;9.16;5.96;;;;;;;;;;358387;147;856674;-58
2022/03/03 03:23:18;;;;;;;10.04;6.02;;;;;;;;;;358170;147;856685;-58
2022/03/03 03:24:20;;;;;;;10.59;5.94;;;;;;;;;;356874;147;856542;-59
2022/03/03 03:25:21;;;;;;;9.89;5.79;;;;;;;;;;356398;147;856474;-58
2022/03/03 03:26:24;;;;;;;9.14;5.94;;;;;;;;;;357980;147;856369;-58
2022/03/03 03:27:26;;;;;;;10.98;5.94;;;;;;;;;;356571;147;863688;-58
2022/03/03 03:28:27;;;;;;;9.96;5.65;;;;;;;;;;358823;147;856410;-58
2022/03/03 03:29:29;;;;;;;9.22;6.31;;;;;;;;;;357173;147;858941;-59
2022/03/03 03:30:30;;;;;;;9.57;5.81;;;;;;;;;;356383;147;863727;-59
2022/03/03 03:31:32;;;;;;;10.09;5.90;;;;;;;;;;357279;147;856080;-58
2022/03/03 03:32:34;;;;;;;7.40;5.07;;;;;;;;;;355009;148;856292;-59
2022/03/03 03:33:35;;;;;;;7.82;4.99;;;;;;;;;;356242;147;856960;-59
2022/03/03 03:34:37;;;;;;;7.39;4.81;;;;;;;;;;357784;147;863801;-62
2022/03/03 03:35:39;;;;;;;7.59;5.16;;;;;;;;;;357523;147;856088;-62
2022/03/03 03:36:41;;;;;;;7.63;5.15;;;;;;;;;;356447;147;856818;-65
2022/03/03 03:39:28;;;;;;;7.66;4.63;;;;;;;1.02;80.22;99483.70;376041;139;883718;-66
2022/03/03 03:40:31;;;;;;;5.99;4.28;;;;;;;0.94;80.14;99486.91;370642;143;856184;-66
2022/03/03 03:41:33;;;;;;;5.89;3.92;;;;;;;0.94;79.97;99486.91;370462;141;863680;-65
2022/03/03 03:42:35;;;;;;;4.35;2.89;;;;;;;0.90;79.92;99475.77;359279;145;856644;-66
2022/03/03 03:43:37;;;;;;;4.37;3.05;;;;;;;;;;359133;145;856832;-66
2022/03/03 03:44:39;;;;;;;4.47;3.25;;;;;;;;;;373163;141;856173;-66
2022/03/03 03:45:41;;;;;;;6.26;3.25;;;;;;;;;;369876;144;856620;-66
2022/03/03 03:46:43;;;;;;;4.49;3.43;;;;;;;;;;368268;141;856765;-65
2022/03/03 03:47:45;;;;;;;5.78;3.75;;;;;;;;;;372441;141;856394;-66
2022/03/03 03:48:47;;;;;;;5.77;3.93;;;;;;;;;;369830;142;856863;-66
2022/03/03 03:49:49;;;;;;;4.91;3.67;;;;;;;;;;368795;141;856876;-66
2022/03/03 03:50:51;;;;;;;5.96;3.99;;;;;;;;;;371313;142;856740;-65
2022/03/03 03:51:53;;;;;;;6.13;4.31;;;;;;;;;;371582;144;856250;-66
2022/03/03 03:52:55;;;;;;;6.20;4.31;;;;;;;;;;370617;141;857115;-66
2022/03/03 03:53:56;;;;;;;6.03;3.87;;;;;;;;;;370470;141;856396;-66
2022/03/03 03:54:58;;;;;;;6.60;4.50;;;;;;;;;;371106;141;856790;-66
2022/03/03 03:56:00;;;;;;;6.62;4.39;;;;;;;;;;372505;141;857302;-66
2022/03/03 03:57:02;;;;;;;6.81;4.68;;;;;;;;;;373620;141;864206;-66
2022/03/03 03:58:04;;;;;;;6.12;4.42;;;;;;;;;;368964;141;856061;-66
2022/03/03 03:59:05;;;;;;;6.82;4.03;;;;;;;;;;363383;144;856590;-66
2022/03/03 04:00:10;;;;;;;7.80;4.57;;;;;;;;;;364510;147;856074;-66
2022/03/03 04:01:12;;;;;;;7.12;4.46;;;;;;;;;;365145;144;856408;-66
2022/03/03 04:02:14;;;;;;;6.89;4.63;;;;;;;;;;365822;144;856150;-66
2022/03/03 04:03:16;;;;;;;7.08;4.53;;;;;;;;;;365128;144;856045;-66
2022/03/03 04:04:18;;;;;;;7.63;4.37;;;;;;;;;;357159;147;856101;-66
2022/03/03 04:05:20;;;;;;;6.67;4.74;;;;;;;;;;352846;149;857291;-66
2022/03/03 04:06:22;;;;;;;7.05;4.13;;;;;;;;;;358215;147;856161;-66
2022/03/03 04:07:24;;;;;;;6.89;4.46;;;;;;;;;;361066;144;856643;-66
2022/03/03 04:08:25;;;;;;;6.76;4.34;;;;;;;;;;365511;144;863616;-66
2022/03/03 04:09:27;;;;;;;7.74;4.81;;;;;;;;;;365261;144;864156;-66
2022/03/03 04:10:29;;;;;;;8.67;4.73;;;;;;;;;;364308;144;856443;-66
2022/03/03 04:11:31;;;;;;;6.39;4.65;;;;;;;;;;364705;144;856426;-66
2022/03/03 04:12:33;;;;;;;5.82;3.95;;;;;;;;;;365174;144;856506;-66
2022/03/03 04:13:35;;;;;;;7.11;4.52;;;;;;;;;;365303;144;856392;-66
2022/03/03 04:14:37;;;;;;;6.45;4.41;;;;;;;;;;357950;147;856874;-66
2022/03/03 04:15:39;;;;;;;6.83;4.29;;;;;;;;;;352030;150;856282;-66
2022/03/03 04:16:41;;;;;;;7.43;4.60;;;;;;;;;;358135;147;856423;-66
2022/03/03 04:17:43;;;;;;;5.63;3.95;;;;;;;;;;366777;144;857829;-66
2022/03/03 04:18:45;;;;;;;6.75;4.33;;;;;;;;;;365810;144;856278;-66
2022/03/03 04:19:47;;;;;;;5.75;4.19;;;;;;;;;;364091;146;856642;-66
2022/03/03 04:20:49;;;;;;;6.63;4.41;;;;;;;;;;363028;147;856839;-66
2022/03/03 04:21:50;;;;;;;6.72;4.51;;;;;;;;;;364801;144;856249;-66
2022/03/03 04:22:52;;;;;;;6.07;4.13;;;;;;;;;;363635;144;856244;-67
2022/03/03 04:23:54;;;;;;;6.48;4.60;;;;;;;;;;362597;145;856200;-66
2022/03/03 04:24:56;;;;;;;7.07;4.39;;;;;;;;;;358499;147;856541;-66
2022/03/03 04:25:58;;;;;;;6.35;4.33;;;;;;;;;;359126;147;863633;-67
2022/03/03 04:27:00;;;;;;;6.77;4.36;;;;;;;;;;365420;144;856352;-66
2022/03/03 04:28:02;;;;;;;6.42;4.47;;;;;;;;;;363171;144;856372;-66
2022/03/03 04:29:04;;;;;;;6.13;4.13;;;;;;;;;;364091;144;856718;-66
2022/03/03 04:30:10;;;;;;;8.16;4.48;;;;;;;;;;365017;144;857883;-66
2022/03/03 04:31:11;;;;;;;6.79;4.21;;;;;;;;;;363449;144;856064;-66
2022/03/03 04:32:13;;;;;;;7.39;4.34;;;;;;;;;;363489;145;856454;-66
2022/03/03 04:33:15;;;;;;;7.12;4.43;;;;;;;;;;357194;147;856131;-66
2022/03/03 04:34:19;;;;;;;7.44;4.69;;;;;;;;;;361750;144;856359;-66
2022/03/03 04:35:22;;;;;;;5.98;4.31;;;;;;;;;;357880;147;856448;-66
2022/03/03 04:36:24;;;;;;;5.12;3.82;;;;;;;;;;357410;145;859093;-66
2022/03/03 04:37:30;;;;;;;6.48;4.30;;;;;;;;;;364527;144;856187;-66
2022/03/03 04:38:29;;;;;;;5.95;4.02;;;;;;;;;;363606;145;856432;-66
2022/03/03 04:39:31;;;;;;;6.94;4.57;;;;;;;;;;363294;145;863706;-66
2022/03/03 04:40:33;;;;;;;5.65;3.91;;;;;;;;;;363036;146;856135;-67
2022/03/03 04:41:35;;;;;;;7.45;4.24;;;;;;;;;;363411;145;856593;-66
2022/03/03 04:42:37;;;;;;;6.46;4.28;;;;;;;;;;356368;148;856588;-66
2022/03/03 04:43:39;;;;;;;5.79;3.57;;;;;;;;;;355672;148;856491;-67
2022/03/03 04:44:41;;;;;;;5.92;4.03;;;;;;;;;;362458;146;857118;-67
2022/03/03 04:45:43;;;;;;;6.07;4.53;;;;;;;;;;364137;145;856820;-66
2022/03/03 04:46:45;;;;;;;7.00;4.08;;;;;;;;;;365374;145;856814;-68
2022/03/03 04:47:47;;;;;;;7.67;4.90;;;;;;;;;;362615;145;856413;-67
2022/03/03 04:48:49;;;;;;;6.75;4.25;;;;;;;;;;363088;145;856881;-67
2022/03/03 04:49:51;;;;;;;6.97;4.21;;;;;;;;;;363352;145;856287;-66
2022/03/03 04:50:53;;;;;;;5.90;4.07;;;;;;;;;;362012;146;856091;-66
2022/03/03 04:51:55;;;;;;;4.91;3.73;;;;;;;;;;359400;146;856070;-66
2022/03/03 04:52:57;;;;;;;5.67;4.25;;;;;;;;;;364954;145;855998;-66
2022/03/03 04:53:59;;;;;;;5.87;3.83;;;;;;;;;;363579;145;856856;-66
2022/03/03 04:55:01;;;;;;;5.71;4.39;;;;;;;;;;362454;146;856157;-66
2022/03/03 04:56:03;;;;;;;5.58;3.73;;;;;;;;;;361893;145;863757;-67
2022/03/03 04:57:05;;;;;;;6.14;4.03;;;;;;;;;;361800;145;856444;-66
2022/03/03 04:58:06;;;;;;;6.25;3.94;;;;;;;;;;360940;146;856202;-66
2022/03/03 04:59:08;;;;;;;5.22;3.81;;;;;;;;;;362585;146;856823;-66
2022/03/03 05:00:11;;;;;;;5.39;3.97;;;;;;;;;;360779;145;856754;-66
2022/03/03 05:01:14;;;;;;;5.12;3.67;;;;;;;;;;360822;146;856768;-67
2022/03/03 05:02:16;;;;;;;4.87;3.74;;;;;;;;;;361263;145;856445;-66
2022/03/03 05:03:18;;;;;;;4.90;3.30;;;;;;;;;;363145;145;856527;-66
2022/03/03 05:04:20;;;;;;;5.37;3.69;;;;;;;;;;361715;145;857400;-67
2022/03/03 05:05:22;;;;;;;6.24;3.71;;;;;;;;;;362420;145;856207;-66
2022/03/03 05:06:24;;;;;;;5.11;3.69;;;;;;;;;;363245;145;856344;-66
2022/03/03 05:07:26;;;;;;;5.41;3.89;;;;;;;;;;360744;145;856695;-66
2022/03/03 05:08:27;;;;;;;5.39;3.93;;;;;;;;;;361652;145;856675;-66
2022/03/03 05:09:29;;;;;;;4.20;3.32;;;;;;;;;;361592;146;856563;-66
2022/03/03 05:10:32;;;;;;;5.91;3.57;;;;;;;;;;353435;148;856616;-66
2022/03/03 05:11:35;;;;;;;4.83;3.61;;;;;;;;;;354732;147;856615;-66
2022/03/03 05:12:36;;;;;;;6.09;3.90;;;;;;;;;;361429;145;856358;-66
2022/03/03 05:13:39;;;;;;;5.30;3.73;;;;;;;;;;362119;145;856210;-66
2022/03/03 05:14:41;;;;;;;5.12;3.37;;;;;;;;;;362191;145;856471;-66
2022/03/03 05:15:42;;;;;;;5.19;3.31;;;;;;;;;;362185;145;856424;-68
2022/03/03 05:16:44;;;;;;;4.18;3.25;;;;;;;;;;352487;149;856355;-66
2022/03/03 05:17:47;;;;;;;6.65;3.96;;;;;;;;;;348061;151;856406;-66
2022/03/03 05:18:49;;;;;;;5.87;3.55;;;;;;;;;;353243;148;856215;-66
2022/03/03 05:19:51;;;;;;;6.94;3.53;;;;;;;;;;347076;152;857118;-66
2022/03/03 05:20:53;;;;;;;4.66;3.38;;;;;;;;;;352951;148;856797;-66
2022/03/03 05:21:54;;;;;;;4.35;3.71;;;;;;;;;;361170;145;856670;-66
2022/03/03 05:22:56;;;;;;;5.40;3.43;;;;;;;;;;354165;149;856756;-66
2022/03/03 05:23:59;;;;;;;4.53;3.40;;;;;;;;;;353795;148;857153;-66
2022/03/03 05:25:01;;;;;;;4.87;3.48;;;;;;;;;;361120;145;856106;-66
2022/03/03 05:26:03;;;;;;;4.91;3.35;;;;;;;;;;360835;145;856666;-66
2022/03/03 05:27:05;;;;;;;4.81;3.49;;;;;;;;;;359734;145;856168;-66
2022/03/03 05:28:07;;;;;;;4.59;3.29;;;;;;;;;;361691;145;864040;-66
2022/03/03 05:29:09;;;;;;;5.15;3.63;;;;;;;;;;361133;145;856424;-66
2022/03/03 05:30:11;;;;;;;5.58;3.46;;;;;;;;;;361095;146;856574;-66
2022/03/03 05:31:13;;;;;;;4.52;3.41;;;;;;;;;;360361;146;856152;-66
2022/03/03 05:32:15;;;;;;;5.09;3.49;;;;;;;;;;360931;145;857723;-65
2022/03/03 05:33:17;;;;;;;4.59;3.23;;;;;;;;;;361888;146;856128;-66
2022/03/03 05:34:19;;;;;;;5.50;3.57;;;;;;;;;;362742;145;863826;-67
2022/03/03 05:35:21;;;;;;;4.97;3.59;;;;;;;;;;361118;146;856794;-64
2022/03/03 05:36:24;;;;;;;5.59;4.05;;;;;;;;;;362226;145;856710;-65
2022/03/03 05:37:26;;;;;;;4.91;3.59;;;;;;;;;;360681;145;856117;-66
2022/03/03 05:38:29;;;;;;;5.33;3.77;;;;;;;;;;361260;146;863899;-65
2022/03/03 05:39:31;;;;;;;5.76;3.59;;;;;;;;;;361531;145;856088;-65
2022/03/03 05:40:32;;;;;;;5.57;4.19;;;;;;;;;;361703;145;856256;-65
2022/03/03 05:41:34;;;;;;;5.88;3.58;;;;;;;;;;361022;146;863654;-65
2022/03/03 05:42:36;;;;;;;6.07;3.56;;;;;;;;;;360701;145;863815;-65
2022/03/03 05:43:38;;;;;;;5.10;3.85;;;;;;;;;;360431;145;863686;-65
2022/03/03 05:44:40;;;;;;;5.10;3.57;;;;;;;;;;360657;146;856663;-65
2022/03/03 05:45:42;;;;;;;4.85;3.73;;;;;;;;;;357575;148;856295;-65
2022/03/03 05:46:45;;;;;;;5.14;4.11;;;;;;;;;;357157;148;856979;-66
2022/03/03 05:47:46;;;;;;;5.53;3.93;;;;;;;;;;354337;148;856256;-66
2022/03/03 05:48:49;;;;;;;4.68;3.45;;;;;;;;;;354656;147;856331;-66
2022/03/03 05:49:52;;;;;;;5.56;3.75;;;;;;;;;;355289;146;857241;-66
2022/03/03 05:50:54;;;;;;;5.36;4.14;;;;;;;;;;354376;148;856384;-66
2022/03/03 05:51:56;;;;;;;5.23;3.93;;;;;;;;;;355097;148;856783;-65
2022/03/03 05:52:59;;;;;;;5.72;3.65;;;;;;;;;;353023;149;857113;-65
2022/03/03 05:54:01;;;;;;;6.10;4.12;;;;;;;;;;355707;147;863728;-66
2022/03/03 05:55:04;;;;;;;6.04;3.97;;;;;;;;;;360657;146;864309;-66
2022/03/03 05:56:06;;;;;;;6.13;4.02;;;;;;;;;;361194;146;856098;-66
2022/03/03 05:57:10;;;;;;;5.74;4.01;;;;;;;;;;362013;145;863601;-66
2022/03/03 05:58:14;;;;;;;5.17;3.94;;;;;;;;;;360048;145;856585;-67
2022/03/03 05:59:15;;;;;;;6.62;4.18;;;;;;;;;;362038;145;863729;-65
2022/03/03 06:00:17;;;;;;;4.62;3.29;;;;;;;;;;361745;145;856969;-66
2022/03/03 06:01:20;;;;;;;5.59;3.93;;;;;;;;;;362948;145;863812;-65
2022/03/03 06:02:21;;;;;;;6.10;4.15;;;;;;;;;;360910;146;856174;-66
2022/03/03 06:03:23;;;;;;;4.94;4.02;;;;;;;;;;354462;148;857523;-66
2022/03/03 06:04:26;;;;;;;5.15;3.88;;;;;;;;;;356329;148;863756;-66
2022/03/03 06:05:28;;;;;;;6.17;4.51;;;;;;;;;;361450;145;856664;-66
2022/03/03 06:06:34;;;;;;;5.91;4.20;;;;;;;;;;353251;150;856702;-66
2022/03/03 06:07:37;;;;;;;7.46;4.57;;;;;;;;;;352790;145;856600;-66
2022/03/03 06:08:39;;;;;;;5.22;3.87;;;;;;;;;;360996;146;856270;-66
2022/03/03 06:09:42;;;;;;;6.02;4.17;;;;;;;;;;361759;146;863649;-66
2022/03/03 06:10:46;;;;;;;5.49;4.38;;;;;;;;;;356196;148;864399;-66
2022/03/03 06:11:48;;;;;;;6.35;4.31;;;;;;;;;;354751;148;856939;-66
2022/03/03 06:12:52;;;;;;;6.93;4.45;;;;;;;;;;356131;148;863915;-66
2022/03/03 06:13:59;;;;;;;5.35;4.04;;;;;;;;;;361899;145;856271;-65
2022/03/03 06:15:02;;;;;;;6.97;4.68;;;;;;;;;;361217;145;856492;-66
2022/03/03 06:16:04;;;;;;;6.24;4.36;;;;;;;;;;362258;145;856553;-67